sensor_id;sensor_type;location;lat;lon;timestamp;pressure;altitude;pressure_sealevel;temperature;humidity
69153;BME280;56261;51.580;4.578;2023-09-19T00:00:56;100908.56;;;15.26;100.00
69153;BME280;56261;51.580;4.578;2023-09-19T00:03:22;100902.72;;;15.15;100.00
69153;BME280;56261;51.580;4.578;2023-09-19T00:05:48;100916.13;;;15.15;100.00
69153;BME280;56261;51.580;4.578;2023-09-19T00:08:15;100919.88;;;15.14;100.00
69153;BME280;56261;51.580;4.578;2023-09-19T00:10:41;100919.97;;;15.00;100.00
69153;BME280;56261;51.580;4.578;2023-09-19T00:13:07;100922.34;;;14.81;100.00
69153;BME280;56261;51.580;4.578;2023-09-19T00:15:39;100922.78;;;14.85;100.00
69153;BME280;56261;51.580;4.578;2023-09-19T00:18:05;100921.47;;;14.74;100.00
69153;BME280;56261;51.580;4.578;2023-09-19T00:20:37;100938.97;;;14.70;100.00
69153;BME280;56261;51.580;4.578;2023-09-19T00:23:03;100936.88;;;14.65;100.00
69153;BME280;56261;51.580;4.578;2023-09-19T00:25:34;100938.81;;;14.71;100.00
69153;BME280;56261;51.580;4.578;2023-09-19T00:28:01;100943.97;;;14.51;100.00
69153;BME280;56261;51.580;4.578;2023-09-19T00:30:26;100946.00;;;14.49;100.00
69153;BME280;56261;51.580;4.578;2023-09-19T00:32:52;100948.00;;;14.41;100.00
69153;BME280;56261;51.580;4.578;2023-09-19T00:35:18;100953.31;;;14.34;100.00
69153;BME280;56261;51.580;4.578;2023-09-19T00:37:49;100953.31;;;14.34;100.00
69153;BME280;56261;51.580;4.578;2023-09-19T00:40:14;100959.09;;;14.38;100.00
69153;BME280;56261;51.580;4.578;2023-09-19T00:42:43;100952.84;;;14.30;100.00
69153;BME280;56261;51.580;4.578;2023-09-19T00:45:09;100949.22;;;14.38;100.00
69153;BME280;56261;51.580;4.578;2023-09-19T00:47:44;100955.00;;;14.42;100.00
69153;BME280;56261;51.580;4.578;2023-09-19T00:50:11;100955.16;;;14.33;100.00
69153;BME280;56261;51.580;4.578;2023-09-19T00:52:40;100963.56;;;14.30;100.00
69153;BME280;56261;51.580;4.578;2023-09-19T00:55:08;100963.78;;;14.29;100.00
69153;BME280;56261;51.580;4.578;2023-09-19T00:57:35;100968.16;;;14.15;100.00
69153;BME280;56261;51.580;4.578;2023-09-19T01:00:02;100972.53;;;14.16;100.00
69153;BME280;56261;51.580;4.578;2023-09-19T01:02:34;100966.59;;;14.21;100.00
69153;BME280;56261;51.580;4.578;2023-09-19T01:09:02;100973.59;;;14.22;100.00
69153;BME280;56261;51.580;4.578;2023-09-19T01:11:35;100972.53;;;14.16;100.00
69153;BME280;56261;51.580;4.578;2023-09-19T01:14:17;100980.00;;;14.21;100.00
69153;BME280;56261;51.580;4.578;2023-09-19T01:17:08;100977.06;;;14.16;100.00
69153;BME280;56261;51.580;4.578;2023-09-19T01:25:50;100980.66;;;14.08;100.00
69153;BME280;56261;51.580;4.578;2023-09-19T01:28:32;100987.00;;;14.00;100.00
69153;BME280;56261;51.580;4.578;2023-09-19T01:31:04;100984.59;;;13.90;100.00
69153;BME280;56261;51.580;4.578;2023-09-19T01:33:54;100983.13;;;13.88;100.00
69153;BME280;56261;51.580;4.578;2023-09-19T01:36:29;100982.84;;;13.83;100.00
69153;BME280;56261;51.580;4.578;2023-09-19T01:38:55;100989.22;;;13.82;100.00
69153;BME280;56261;51.580;4.578;2023-09-19T01:41:33;100982.69;;;13.84;100.00
69153;BME280;56261;51.580;4.578;2023-09-19T01:44:06;100980.25;;;13.89;100.00
69153;BME280;56261;51.580;4.578;2023-09-19T01:46:35;100980.66;;;13.86;100.00
69153;BME280;56261;51.580;4.578;2023-09-19T01:52:12;100981.09;;;13.75;100.00
69153;BME280;56261;51.580;4.578;2023-09-19T01:54:57;100979.72;;;13.79;100.00
69153;BME280;56261;51.580;4.578;2023-09-19T01:57:35;100976.13;;;13.72;100.00
69153;BME280;56261;51.580;4.578;2023-09-19T02:00:06;100977.50;;;13.68;100.00
69153;BME280;56261;51.580;4.578;2023-09-19T02:02:36;100979.84;;;13.71;100.00
69153;BME280;56261;51.580;4.578;2023-09-19T02:05:03;100977.50;;;13.68;100.00
69153;BME280;56261;51.580;4.578;2023-09-19T02:07:29;100981.88;;;13.69;100.00
69153;BME280;56261;51.580;4.578;2023-09-19T02:09:59;100980.94;;;13.62;100.00
69153;BME280;56261;51.580;4.578;2023-09-19T02:12:32;100986.38;;;13.68;100.00
69153;BME280;56261;51.580;4.578;2023-09-19T02:15:00;100978.91;;;13.64;100.00
69153;BME280;56261;51.580;4.578;2023-09-19T02:17:26;100982.78;;;13.61;100.00
69153;BME280;56261;51.580;4.578;2023-09-19T02:19:52;100975.41;;;13.63;100.00
69153;BME280;56261;51.580;4.578;2023-09-19T02:22:18;100984.72;;;13.67;100.00
69153;BME280;56261;51.580;4.578;2023-09-19T02:24:43;100980.00;;;13.69;100.00
69153;BME280;56261;51.580;4.578;2023-09-19T02:27:09;100981.56;;;13.79;100.00
69153;BME280;56261;51.580;4.578;2023-09-19T02:29:34;100984.25;;;13.79;100.00
69153;BME280;56261;51.580;4.578;2023-09-19T02:32:00;100983.94;;;13.88;100.00
69153;BME280;56261;51.580;4.578;2023-09-19T02:34:26;100990.81;;;13.76;100.00
69153;BME280;56261;51.580;4.578;2023-09-19T02:36:52;100987.00;;;13.85;100.00
69153;BME280;56261;51.580;4.578;2023-09-19T02:39:20;100990.34;;;13.87;100.00
69153;BME280;56261;51.580;4.578;2023-09-19T02:41:45;100988.69;;;13.86;100.00
69153;BME280;56261;51.580;4.578;2023-09-19T02:44:11;100989.44;;;13.80;100.00
69153;BME280;56261;51.580;4.578;2023-09-19T02:46:37;100999.50;;;13.78;100.00
69153;BME280;56261;51.580;4.578;2023-09-19T02:49:03;100995.06;;;13.85;100.00
69153;BME280;56261;51.580;4.578;2023-09-19T02:51:32;100991.25;;;13.95;100.00
69153;BME280;56261;51.580;4.578;2023-09-19T02:53:59;100993.66;;;13.89;100.00
69153;BME280;56261;51.580;4.578;2023-09-19T02:56:24;100984.16;;;13.87;100.00
69153;BME280;56261;51.580;4.578;2023-09-19T02:58:50;100991.16;;;13.88;100.00
69153;BME280;56261;51.580;4.578;2023-09-19T03:01:16;100992.75;;;13.82;100.00
69153;BME280;56261;51.580;4.578;2023-09-19T03:03:43;100995.31;;;13.90;100.00
69153;BME280;56261;51.580;4.578;2023-09-19T03:06:10;100993.03;;;13.87;100.00
69153;BME280;56261;51.580;4.578;2023-09-19T03:08:38;100994.66;;;13.88;100.00
69153;BME280;56261;51.580;4.578;2023-09-19T03:11:05;101001.53;;;13.91;100.00
69153;BME280;56261;51.580;4.578;2023-09-19T03:13:32;100991.38;;;13.86;100.00
69153;BME280;56261;51.580;4.578;2023-09-19T03:15:57;100987.28;;;13.90;100.00
69153;BME280;56261;51.580;4.578;2023-09-19T03:18:26;100986.19;;;13.85;100.00
69153;BME280;56261;51.580;4.578;2023-09-19T03:20:55;100991.72;;;13.98;100.00
69153;BME280;56261;51.580;4.578;2023-09-19T03:23:21;100987.75;;;13.94;100.00
69153;BME280;56261;51.580;4.578;2023-09-19T03:25:46;100987.91;;;14.07;100.00
69153;BME280;56261;51.580;4.578;2023-09-19T03:28:13;100999.53;;;14.00;100.00
69153;BME280;56261;51.580;4.578;2023-09-19T03:30:38;100982.06;;;14.04;100.00
69153;BME280;56261;51.580;4.578;2023-09-19T03:33:04;100982.53;;;14.07;100.00
69153;BME280;56261;51.580;4.578;2023-09-19T03:35:30;100982.06;;;14.04;100.00
69153;BME280;56261;51.580;4.578;2023-09-19T03:37:55;100985.59;;;14.04;100.00
69153;BME280;56261;51.580;4.578;2023-09-19T03:40:21;100985.28;;;14.14;100.00
69153;BME280;56261;51.580;4.578;2023-09-19T03:42:48;100983.91;;;14.03;100.00
69153;BME280;56261;51.580;4.578;2023-09-19T03:45:13;100984.19;;;14.08;100.00
69153;BME280;56261;51.580;4.578;2023-09-19T03:47:40;100985.69;;;14.11;100.00
69153;BME280;56261;51.580;4.578;2023-09-19T03:50:06;100993.97;;;14.16;100.00
69153;BME280;56261;51.580;4.578;2023-09-19T03:52:33;100987.16;;;14.14;100.00
69153;BME280;56261;51.580;4.578;2023-09-19T03:54:59;100987.44;;;14.04;100.00
69153;BME280;56261;51.580;4.578;2023-09-19T03:57:25;100994.53;;;14.11;100.00
69153;BME280;56261;51.580;4.578;2023-09-19T03:59:50;101004.28;;;13.98;100.00
69153;BME280;56261;51.580;4.578;2023-09-19T04:02:18;100994.81;;;14.02;100.00
69153;BME280;56261;51.580;4.578;2023-09-19T04:04:53;101012.84;;;14.08;100.00
69153;BME280;56261;51.580;4.578;2023-09-19T04:07:18;101014.47;;;14.02;100.00
69153;BME280;56261;51.580;4.578;2023-09-19T04:09:44;101011.38;;;14.05;100.00
69153;BME280;56261;51.580;4.578;2023-09-19T04:12:11;101013.88;;;14.07;100.00
69153;BME280;56261;51.580;4.578;2023-09-19T04:14:37;101013.69;;;14.08;100.00
69153;BME280;56261;51.580;4.578;2023-09-19T04:17:03;101023.41;;;14.09;100.00
69153;BME280;56261;51.580;4.578;2023-09-19T04:19:30;101015.28;;;14.03;100.00
69153;BME280;56261;51.580;4.578;2023-09-19T04:21:55;101025.25;;;14.09;100.00
69153;BME280;56261;51.580;4.578;2023-09-19T04:24:21;101030.34;;;14.04;100.00
69153;BME280;56261;51.580;4.578;2023-09-19T04:26:46;101041.72;;;14.06;100.00
69153;BME280;56261;51.580;4.578;2023-09-19T04:29:12;101042.19;;;14.09;100.00
69153;BME280;56261;51.580;4.578;2023-09-19T04:31:39;101031.44;;;14.09;100.00
69153;BME280;56261;51.580;4.578;2023-09-19T04:34:05;101039.69;;;14.08;100.00
69153;BME280;56261;51.580;4.578;2023-09-19T04:36:31;101039.69;;;14.08;100.00
69153;BME280;56261;51.580;4.578;2023-09-19T04:38:56;101051.06;;;14.10;100.00
69153;BME280;56261;51.580;4.578;2023-09-19T04:41:21;101046.91;;;14.07;100.00
69153;BME280;56261;51.580;4.578;2023-09-19T04:43:47;101053.66;;;14.03;100.00
69153;BME280;56261;51.580;4.578;2023-09-19T04:46:14;101054.69;;;14.02;100.00
69153;BME280;56261;51.580;4.578;2023-09-19T04:48:40;101059.75;;;14.12;100.00
69153;BME280;56261;51.580;4.578;2023-09-19T04:51:06;101054.69;;;14.02;100.00
69153;BME280;56261;51.580;4.578;2023-09-19T04:53:32;101051.44;;;13.92;100.00
69153;BME280;56261;51.580;4.578;2023-09-19T04:55:57;101050.06;;;13.96;100.00
69153;BME280;56261;51.580;4.578;2023-09-19T04:58:23;101053.19;;;14.00;100.00
69153;BME280;56261;51.580;4.578;2023-09-19T05:00:48;101047.72;;;13.93;100.00
69153;BME280;56261;51.580;4.578;2023-09-19T05:03:16;101049.88;;;13.98;100.00
69153;BME280;56261;51.580;4.578;2023-09-19T05:05:42;101044.78;;;14.03;100.00
69153;BME280;56261;51.580;4.578;2023-09-19T05:08:08;101044.69;;;13.96;100.00
69153;BME280;56261;51.580;4.578;2023-09-19T05:10:35;101057.94;;;13.98;100.00
69153;BME280;56261;51.580;4.578;2023-09-19T05:13:03;101053.94;;;13.94;100.00
69153;BME280;56261;51.580;4.578;2023-09-19T05:15:30;101057.28;;;13.96;100.00
69153;BME280;56261;51.580;4.578;2023-09-19T05:17:56;101054.88;;;14.01;100.00
69153;BME280;56261;51.580;4.578;2023-09-19T05:20:21;101052.66;;;13.89;100.00
69153;BME280;56261;51.580;4.578;2023-09-19T05:22:58;101059.84;;;14.04;100.00
69153;BME280;56261;51.580;4.578;2023-09-19T05:25:27;101061.13;;;13.93;100.00
69153;BME280;56261;51.580;4.578;2023-09-19T05:27:58;101055.44;;;13.96;100.00
69153;BME280;56261;51.580;4.578;2023-09-19T05:30:25;101050.34;;;13.86;100.00
69153;BME280;56261;51.580;4.578;2023-09-19T05:32:52;101057.63;;;13.93;100.00
69153;BME280;56261;51.580;4.578;2023-09-19T05:35:18;101053.88;;;13.87;100.00
69153;BME280;56261;51.580;4.578;2023-09-19T05:37:43;101061.09;;;13.86;100.00
69153;BME280;56261;51.580;4.578;2023-09-19T05:40:09;101066.31;;;13.95;100.00
69153;BME280;56261;51.580;4.578;2023-09-19T05:42:35;101053.22;;;13.85;100.00
69153;BME280;56261;51.580;4.578;2023-09-19T05:45:01;101053.13;;;13.78;100.00
69153;BME280;56261;51.580;4.578;2023-09-19T05:47:26;101052.56;;;13.83;100.00
69153;BME280;56261;51.580;4.578;2023-09-19T05:49:51;101056.53;;;13.87;100.00
69153;BME280;56261;51.580;4.578;2023-09-19T05:52:17;101060.06;;;13.87;100.00
69153;BME280;56261;51.580;4.578;2023-09-19T05:54:43;101056.34;;;13.88;100.00
69153;BME280;56261;51.580;4.578;2023-09-19T05:57:08;101058.03;;;13.89;100.00
69153;BME280;56261;51.580;4.578;2023-09-19T05:59:35;101064.13;;;13.83;100.00
69153;BME280;56261;51.580;4.578;2023-09-19T06:02:01;101059.31;;;13.94;100.00
69153;BME280;56261;51.580;4.578;2023-09-19T06:04:26;101062.09;;;14.00;100.00
69153;BME280;56261;51.580;4.578;2023-09-19T06:06:51;101065.41;;;14.02;100.00
69153;BME280;56261;51.580;4.578;2023-09-19T06:09:17;101076.78;;;14.04;100.00
69153;BME280;56261;51.580;4.578;2023-09-19T06:11:42;101072.59;;;14.02;100.00
69153;BME280;56261;51.580;4.578;2023-09-19T06:14:08;101083.63;;;14.07;100.00
69153;BME280;56261;51.580;4.578;2023-09-19T06:16:35;101087.97;;;14.08;100.00
69153;BME280;56261;51.580;4.578;2023-09-19T06:19:03;101085.28;;;14.08;100.00
69153;BME280;56261;51.580;4.578;2023-09-19T06:21:28;101087.22;;;14.14;100.00
69153;BME280;56261;51.580;4.578;2023-09-19T06:23:54;101085.38;;;14.15;100.00
69153;BME280;56261;51.580;4.578;2023-09-19T06:26:20;101083.22;;;14.25;100.00
69153;BME280;56261;51.580;4.578;2023-09-19T06:28:45;101080.25;;;14.20;100.00
69153;BME280;56261;51.580;4.578;2023-09-19T06:31:11;101088.13;;;14.21;100.00
69153;BME280;56261;51.580;4.578;2023-09-19T06:33:37;101094.31;;;14.22;100.00
69153;BME280;56261;51.580;4.578;2023-09-19T06:36:06;101096.44;;;14.26;100.00
69153;BME280;56261;51.580;4.578;2023-09-19T06:38:32;101090.25;;;14.26;100.00
69153;BME280;56261;51.580;4.578;2023-09-19T06:41:00;101089.09;;;14.35;100.00
69153;BME280;56261;51.580;4.578;2023-09-19T06:43:26;101090.72;;;14.51;100.00
69153;BME280;56261;51.580;4.578;2023-09-19T06:45:52;101085.13;;;14.61;100.00
69153;BME280;56261;51.580;4.578;2023-09-19T06:48:20;101080.75;;;14.60;100.00
69153;BME280;56261;51.580;4.578;2023-09-19T06:50:46;101091.31;;;14.61;100.00
69153;BME280;56261;51.580;4.578;2023-09-19T06:53:13;101090.28;;;14.62;100.00
69153;BME280;56261;51.580;4.578;2023-09-19T06:55:38;101094.38;;;14.58;100.00
69153;BME280;56261;51.580;4.578;2023-09-19T06:58:04;101102.38;;;14.73;100.00
69153;BME280;56261;51.580;4.578;2023-09-19T07:00:31;101097.00;;;14.73;100.00
69153;BME280;56261;51.580;4.578;2023-09-19T07:03:05;101092.97;;;14.84;100.00
69153;BME280;56261;51.580;4.578;2023-09-19T07:05:34;101091.00;;;14.92;100.00
69153;BME280;56261;51.580;4.578;2023-09-19T07:08:02;101087.78;;;15.04;100.00
69153;BME280;56261;51.580;4.578;2023-09-19T07:10:28;101092.59;;;15.08;100.00
69153;BME280;56261;51.580;4.578;2023-09-19T07:12:56;101089.53;;;15.11;100.00
69153;BME280;56261;51.580;4.578;2023-09-19T07:15:22;101085.03;;;15.19;100.00
69153;BME280;56261;51.580;4.578;2023-09-19T07:17:51;101086.44;;;15.36;100.00
69153;BME280;56261;51.580;4.578;2023-09-19T07:20:17;101075.19;;;15.54;100.00
69153;BME280;56261;51.580;4.578;2023-09-19T07:22:42;101082.97;;;15.49;100.00
69153;BME280;56261;51.580;4.578;2023-09-19T07:25:08;101085.56;;;15.64;100.00
69153;BME280;56261;51.580;4.578;2023-09-19T07:27:33;101088.31;;;15.42;100.00
69153;BME280;56261;51.580;4.578;2023-09-19T07:29:59;101091.25;;;15.47;100.00
69153;BME280;56261;51.580;4.578;2023-09-19T07:32:24;101083.59;;;15.72;100.00
69153;BME280;56261;51.580;4.578;2023-09-19T07:34:50;101095.25;;;15.58;100.00
69153;BME280;56261;51.580;4.578;2023-09-19T07:37:15;101095.69;;;15.62;100.00
69153;BME280;56261;51.580;4.578;2023-09-19T07:39:42;101102.25;;;15.81;100.00
69153;BME280;56261;51.580;4.578;2023-09-19T07:42:08;101104.09;;;15.80;100.00
69153;BME280;56261;51.580;4.578;2023-09-19T07:44:35;101089.06;;;15.86;100.00
69153;BME280;56261;51.580;4.578;2023-09-19T07:47:01;101096.38;;;15.70;100.00
69153;BME280;56261;51.580;4.578;2023-09-19T07:49:28;101099.53;;;15.74;100.00
69153;BME280;56261;51.580;4.578;2023-09-19T07:51:54;101100.75;;;15.71;100.00
69153;BME280;56261;51.580;4.578;2023-09-19T07:54:20;101102.72;;;15.91;100.00
69153;BME280;56261;51.580;4.578;2023-09-19T07:56:45;101090.38;;;16.03;100.00
69153;BME280;56261;51.580;4.578;2023-09-19T07:59:11;101105.09;;;16.14;100.00
69153;BME280;56261;51.580;4.578;2023-09-19T08:01:37;101094.69;;;16.46;100.00
69153;BME280;56261;51.580;4.578;2023-09-19T08:04:02;101095.13;;;16.63;100.00
69153;BME280;56261;51.580;4.578;2023-09-19T08:06:28;101083.28;;;16.37;100.00
69153;BME280;56261;51.580;4.578;2023-09-19T08:08:55;101095.50;;;16.39;100.00
69153;BME280;56261;51.580;4.578;2023-09-19T08:11:22;101097.00;;;16.55;100.00
69153;BME280;56261;51.580;4.578;2023-09-19T08:16:58;101090.66;;;16.83;100.00
69153;BME280;56261;51.580;4.578;2023-09-19T08:19:24;101086.44;;;16.67;100.00
69153;BME280;56261;51.580;4.578;2023-09-19T08:21:59;101084.06;;;16.86;100.00
69153;BME280;56261;51.580;4.578;2023-09-19T08:24:29;101084.38;;;16.69;100.00
69153;BME280;56261;51.580;4.578;2023-09-19T08:26:55;101092.66;;;16.68;100.00
69153;BME280;56261;51.580;4.578;2023-09-19T08:29:22;101098.16;;;17.14;100.00
69153;BME280;56261;51.580;4.578;2023-09-19T08:31:56;101088.97;;;16.75;100.00
69153;BME280;56261;51.580;4.578;2023-09-19T08:34:23;101095.59;;;16.73;100.00
69153;BME280;56261;51.580;4.578;2023-09-19T08:36:51;101087.28;;;16.74;100.00
69153;BME280;56261;51.580;4.578;2023-09-19T08:39:16;101086.94;;;16.91;100.00
69153;BME280;56261;51.580;4.578;2023-09-19T08:41:42;101089.22;;;17.40;100.00
69153;BME280;56261;51.580;4.578;2023-09-19T08:44:07;101094.00;;;17.32;100.00
69153;BME280;56261;51.580;4.578;2023-09-19T08:46:34;101088.00;;;17.30;100.00
69153;BME280;56261;51.580;4.578;2023-09-19T08:49:04;101097.13;;;17.09;100.00
69153;BME280;56261;51.580;4.578;2023-09-19T08:51:42;101090.66;;;16.90;100.00
69153;BME280;56261;51.580;4.578;2023-09-19T08:54:15;101082.81;;;16.95;100.00
69153;BME280;56261;51.580;4.578;2023-09-19T08:56:46;101086.34;;;17.09;100.00
69153;BME280;56261;51.580;4.578;2023-09-19T08:59:13;101092.13;;;17.12;100.00
69153;BME280;56261;51.580;4.578;2023-09-19T09:01:40;101091.53;;;17.10;100.00
69153;BME280;56261;51.580;4.578;2023-09-19T09:04:08;101083.44;;;17.17;100.00
69153;BME280;56261;51.580;4.578;2023-09-19T09:06:35;101076.81;;;16.99;100.00
69153;BME280;56261;51.580;4.578;2023-09-19T09:09:02;101063.31;;;17.33;100.00
69153;BME280;56261;51.580;4.578;2023-09-19T09:11:28;101059.50;;;17.80;100.00
69153;BME280;56261;51.580;4.578;2023-09-19T09:13:54;101067.22;;;18.29;100.00
69153;BME280;56261;51.580;4.578;2023-09-19T09:16:19;101070.56;;;18.24;100.00
69153;BME280;56261;51.580;4.578;2023-09-19T09:18:45;101060.81;;;18.23;100.00
69153;BME280;56261;51.580;4.578;2023-09-19T09:21:12;101075.13;;;18.23;100.00
69153;BME280;56261;51.580;4.578;2023-09-19T09:23:38;101058.34;;;18.15;100.00
69153;BME280;56261;51.580;4.578;2023-09-19T09:26:04;101066.63;;;18.27;100.00
69153;BME280;56261;51.580;4.578;2023-09-19T09:28:32;101068.16;;;18.48;100.00
69153;BME280;56261;51.580;4.578;2023-09-19T09:30:59;101056.25;;;18.94;100.00
69153;BME280;56261;51.580;4.578;2023-09-19T09:33:28;101055.28;;;18.81;100.00
69153;BME280;56261;51.580;4.578;2023-09-19T09:35:58;101061.66;;;18.94;100.00
69153;BME280;56261;51.580;4.578;2023-09-19T09:38:41;101048.84;;;19.33;100.00
69153;BME280;56261;51.580;4.578;2023-09-19T09:41:09;101042.78;;;19.12;100.00
69153;BME280;56261;51.580;4.578;2023-09-19T09:43:39;101060.72;;;18.43;100.00
69153;BME280;56261;51.580;4.578;2023-09-19T09:46:16;101061.78;;;19.05;100.00
69153;BME280;56261;51.580;4.578;2023-09-19T09:51:37;101075.16;;;18.55;100.00
69153;BME280;56261;51.580;4.578;2023-09-19T09:54:15;101051.00;;;18.67;100.00
69153;BME280;56261;51.580;4.578;2023-09-19T09:56:53;101068.22;;;18.73;100.00
69153;BME280;56261;51.580;4.578;2023-09-19T09:59:20;101070.19;;;18.91;100.00
69153;BME280;56261;51.580;4.578;2023-09-19T10:01:49;101064.72;;;18.65;100.00
69153;BME280;56261;51.580;4.578;2023-09-19T10:04:27;101063.03;;;18.78;100.00
69153;BME280;56261;51.580;4.578;2023-09-19T10:07:02;101072.06;;;18.58;100.00
69153;BME280;56261;51.580;4.578;2023-09-19T10:09:44;101070.78;;;18.61;100.00
69153;BME280;56261;51.580;4.578;2023-09-19T10:12:11;101051.22;;;18.34;100.00
69153;BME280;56261;51.580;4.578;2023-09-19T10:14:38;101063.84;;;18.78;100.00
69153;BME280;56261;51.580;4.578;2023-09-19T10:17:10;101047.81;;;19.34;100.00
69153;BME280;56261;51.580;4.578;2023-09-19T10:19:56;101049.25;;;19.55;100.00
69153;BME280;56261;51.580;4.578;2023-09-19T10:22:31;101045.72;;;19.36;100.00
69153;BME280;56261;51.580;4.578;2023-09-19T10:24:57;101038.63;;;19.53;100.00
69153;BME280;56261;51.580;4.578;2023-09-19T10:27:26;101031.63;;;19.27;100.00
69153;BME280;56261;51.580;4.578;2023-09-19T10:29:52;101018.66;;;19.54;100.00
69153;BME280;56261;51.580;4.578;2023-09-19T10:32:22;101024.50;;;19.51;100.00
69153;BME280;56261;51.580;4.578;2023-09-19T10:34:49;101014.22;;;19.41;100.00
69153;BME280;56261;51.580;4.578;2023-09-19T10:37:16;101018.06;;;19.34;100.00
69153;BME280;56261;51.580;4.578;2023-09-19T10:39:52;101016.69;;;19.43;100.00
69153;BME280;56261;51.580;4.578;2023-09-19T10:42:20;101033.78;;;18.93;100.00
69153;BME280;56261;51.580;4.578;2023-09-19T10:44:47;101014.31;;;19.10;100.00
69153;BME280;56261;51.580;4.578;2023-09-19T10:47:19;101019.81;;;19.21;100.00
69153;BME280;56261;51.580;4.578;2023-09-19T10:49:45;101022.78;;;19.38;100.00
69153;BME280;56261;51.580;4.578;2023-09-19T10:52:15;101007.66;;;19.31;100.00
69153;BME280;56261;51.580;4.578;2023-09-19T10:54:48;101005.16;;;19.73;100.00
69153;BME280;56261;51.580;4.578;2023-09-19T10:57:21;101020.16;;;19.87;100.00
69153;BME280;56261;51.580;4.578;2023-09-19T11:00:05;101006.84;;;20.04;100.00
69153;BME280;56261;51.580;4.578;2023-09-19T11:03:23;100990.94;;;19.77;100.00
69153;BME280;56261;51.580;4.578;2023-09-19T11:06:01;101001.41;;;19.74;100.00
69153;BME280;56261;51.580;4.578;2023-09-19T11:08:30;100996.47;;;19.64;100.00
69153;BME280;56261;51.580;4.578;2023-09-19T11:10:57;100982.59;;;19.79;100.00
69153;BME280;56261;51.580;4.578;2023-09-19T11:13:30;100983.31;;;20.04;100.00
69153;BME280;56261;51.580;4.578;2023-09-19T11:24:28;100975.19;;;20.04;100.00
69153;BME280;56261;51.580;4.578;2023-09-19T11:27:10;100969.38;;;20.31;100.00
69153;BME280;56261;51.580;4.578;2023-09-19T11:29:38;100963.47;;;20.22;100.00
69153;BME280;56261;51.580;4.578;2023-09-19T11:32:04;100967.84;;;20.23;100.00
69153;BME280;56261;51.580;4.578;2023-09-19T11:34:37;100957.22;;;20.22;100.00
69153;BME280;56261;51.580;4.578;2023-09-19T11:39:36;100966.41;;;19.17;100.00
69153;BME280;56261;51.580;4.578;2023-09-19T11:45:07;100969.84;;;19.05;100.00
69153;BME280;56261;51.580;4.578;2023-09-19T11:47:33;100966.06;;;18.88;100.00
69153;BME280;56261;51.580;4.578;2023-09-19T11:50:01;100972.00;;;18.97;100.00
69153;BME280;56261;51.580;4.578;2023-09-19T11:52:28;100979.25;;;18.78;100.00
69153;BME280;56261;51.580;4.578;2023-09-19T11:55:00;100979.34;;;18.90;100.00
69153;BME280;56261;51.580;4.578;2023-09-19T11:57:28;100973.25;;;18.69;100.00
69153;BME280;56261;51.580;4.578;2023-09-19T11:59:55;100972.94;;;18.84;100.00
69153;BME280;56261;51.580;4.578;2023-09-19T12:02:54;100954.97;;;18.71;100.00
69153;BME280;56261;51.580;4.578;2023-09-19T12:05:30;100981.09;;;18.77;100.00
69153;BME280;56261;51.580;4.578;2023-09-19T12:07:58;100983.66;;;18.65;100.00
69153;BME280;56261;51.580;4.578;2023-09-19T12:10:24;100988.22;;;18.72;100.00
69153;BME280;56261;51.580;4.578;2023-09-19T12:12:49;100977.69;;;18.88;100.00
69153;BME280;56261;51.580;4.578;2023-09-19T12:15:22;100972.34;;;18.82;100.00
69153;BME280;56261;51.580;4.578;2023-09-19T12:17:54;100985.50;;;18.72;100.00
69153;BME280;56261;51.580;4.578;2023-09-19T12:20:19;100976.25;;;18.86;100.00
69153;BME280;56261;51.580;4.578;2023-09-19T12:22:46;100985.72;;;18.95;100.00
69153;BME280;56261;51.580;4.578;2023-09-19T12:25:15;100975.25;;;19.05;100.00
69153;BME280;56261;51.580;4.578;2023-09-19T12:27:43;100971.66;;;19.12;100.00
69153;BME280;56261;51.580;4.578;2023-09-19T12:30:27;100967.09;;;19.12;100.00
69153;BME280;56261;51.580;4.578;2023-09-19T12:32:53;100958.63;;;19.02;100.00
69153;BME280;56261;51.580;4.578;2023-09-19T12:35:32;100955.19;;;18.95;100.00
69153;BME280;56261;51.580;4.578;2023-09-19T12:38:00;100958.69;;;18.95;100.00
69153;BME280;56261;51.580;4.578;2023-09-19T12:40:26;100970.84;;;19.11;100.00
69153;BME280;56261;51.580;4.578;2023-09-19T12:42:59;100967.22;;;18.99;100.00
69153;BME280;56261;51.580;4.578;2023-09-19T12:45:28;100973.72;;;19.35;100.00
69153;BME280;56261;51.580;4.578;2023-09-19T12:48:21;100967.75;;;19.26;100.00
69153;BME280;56261;51.580;4.578;2023-09-19T12:51:12;100979.66;;;19.25;100.00
69153;BME280;56261;51.580;4.578;2023-09-19T12:53:45;100970.84;;;19.11;100.00
69153;BME280;56261;51.580;4.578;2023-09-19T12:56:15;100957.09;;;19.13;100.00
69153;BME280;56261;51.580;4.578;2023-09-19T12:58:55;100963.50;;;19.18;100.00
69153;BME280;56261;51.580;4.578;2023-09-19T13:01:24;100970.31;;;19.21;100.00
69153;BME280;56261;51.580;4.578;2023-09-19T13:04:11;100977.19;;;18.98;100.00
69153;BME280;56261;51.580;4.578;2023-09-19T13:06:43;100959.56;;;19.14;100.00
69153;BME280;56261;51.580;4.578;2023-09-19T13:09:10;100967.56;;;19.27;100.00
69153;BME280;56261;51.580;4.578;2023-09-19T13:11:37;100961.84;;;19.54;100.00
69153;BME280;56261;51.580;4.578;2023-09-19T13:14:18;100960.88;;;19.85;100.00
69153;BME280;56261;51.580;4.578;2023-09-19T13:16:54;100964.00;;;19.82;100.00
69153;BME280;56261;51.580;4.578;2023-09-19T13:19:42;100977.63;;;19.57;100.00
69153;BME280;56261;51.580;4.578;2023-09-19T13:22:41;100971.00;;;19.90;100.00